Bulpitt, Illinois
Current Conditions -  °F | °C
As of 1:55 AM on Friday 31 Oct 2014 (Local Time) from KTAZ Reporting Station
Haze Haze  
Wind Chill: 39°   Ceiling: Unl
Heat Index: 43°   Visibility: 5mi
Dew Point: 43°   Wind: 7mph
Humidity: 100%   Direction: 340°NNW
Pressure: 30.07"   Gusts: NA
Location:  39.59°N, 89.42°W
Report Text: KTAZ 310655Z AUTO 34006KT 5SM BR SCT040 SCT110 06/06 A3007 RMK AO2
Loading
Personal Weather Stations






























Interactive Weather Map
Tropical Storm Tracking
New forecast layout! Learn more

10-Day Weather Forecast

Advertisements
Track Severe Weather on mobile